Flight Track Log - Related Links

Times and Time Zones

All times are in EDT time to prevent confusion due to time zone crossing. See the N396QS flight status page for this flight to view local times or setup timezone preferences in your user account.

Time Position Orientation Groundspeed Altitude Reporting Facility
EDT Latitude Longitude Course Direction KTS MPH feet Rate Location/Type
Wed 05:57:05 PM 35.5219 -82.5894 357° North 248 285 7,600  Level Atlanta Center
Wed 05:58:05 PM 35.5931 -82.5933 357° North 295 339 10,000 2,700 Climbing Atlanta Center
Wed 06:00:05 PM 35.7689 -82.4928 25° Northeast 325 374 15,700 2,700 Climbing Atlanta Center
Wed 06:01:05 PM 35.8642 -82.4397 24° Northeast 349 402 18,100 2,450 Climbing Atlanta Center
Wed 06:02:05 PM 35.9486 -82.3586 38° Northeast 369 425 20,600 1,900 Climbing Atlanta Center
Wed 06:03:05 PM 36.0139 -82.2392 56° Northeast 378 435 21,900 1,150 Climbing Atlanta Center
Wed 06:04:05 PM 36.0617 -82.1019 67° East 416 479 22,900 550 Climbing Atlanta Center
Wed 06:05:05 PM 36.0633 -81.9403 89° East 437 503 23,000 50 Climbing Atlanta Center
Wed 06:06:05 PM 36.0606 -81.7836 91° East 442 509 23,000 150 Level Atlanta Center
Wed 06:07:05 PM 36.0594 -81.6244 90° East 448 516 23,300 1,200 Climbing Atlanta Center
Wed 06:08:05 PM 36.0625 -81.4675 89° East 454 522 25,400 2,100 Climbing Atlanta Center
Wed 06:09:05 PM 36.0614 -81.3108 90° East 459 528 27,500 1,550 Climbing Atlanta Center
Wed 06:10:05 PM 36.0617 -81.1492 90° East 459 528 28,500 1,000 Climbing Atlanta Center
Wed 06:11:05 PM 36.0597 -80.9822 91° East 471 542 29,500 750 Climbing Atlanta Center
Wed 06:12:05 PM 36.0761 -80.7992 84° East 477 549 30,000 950 Climbing Atlanta Center
Wed 06:13:05 PM 36.1492 -80.6472 59° Northeast 484 557 31,400 1,500 Climbing Atlanta Center
Wed 06:14:05 PM 36.2081 -80.5236 59° Northeast 477 549 33,000 1,403 Climbing Atlanta Center
Wed 06:15:39 PM 36.3242 -80.3047 57° Northeast 456 525 35,000 774 Climbing Washington Center
Wed 06:16:40 PM 36.3686 -80.1783 66° East 449 517 35,000  Level Washington Center
Wed 06:17:40 PM 36.4306 -80.0272 63° Northeast 461 531 35,000  Level Washington Center
Wed 06:18:39 PM 36.5047 -79.8842 57° Northeast 474 545 35,000  Level Washington Center
Wed 06:19:40 PM 36.5808 -79.7356 57° Northeast 487 560 35,000  Level Washington Center
Wed 06:20:40 PM 36.6525 -79.5919 58° Northeast 493 567 35,000 407 Level Washington Center
Wed 06:21:38 PM 36.7239 -79.4506 58° Northeast 493 567 35,800 1,210 Climbing Washington Center
Wed 06:22:39 PM 36.7931 -79.3139 58° Northeast 473 544 37,400 1,475 Climbing Washington Center
Wed 06:23:40 PM 36.8639 -79.1744 58° Northeast 473 544 38,800 807 Climbing Washington Center
Wed 06:24:38 PM 36.9328 -79.0375 58° Northeast 468 539 39,000 101 Climbing Washington Center
Wed 06:25:39 PM 37.0056 -78.8922 58° Northeast 473 544 39,000 -197 Level Washington Center
Wed 06:26:40 PM 37.0806 -78.7419 58° Northeast 487 560 38,600 -496 Descending Washington Center
Wed 06:27:40 PM 37.1533 -78.5964 58° Northeast 487 560 38,000 -305 Descending Washington Center
Wed 06:28:38 PM 37.2256 -78.4558 57° Northeast 482 555 38,000  Level Washington Center
Wed 06:29:39 PM 37.3022 -78.2967 59° Northeast 482 555 38,000  Level Washington Center
Wed 06:30:41 PM 37.3589 -78.1811 58° Northeast 482 555 38,000 -252 Level Washington Center
Wed 06:31:38 PM 37.4497 -78.0378 51° Northeast 477 549 37,500 -864 Descending Washington Center
Wed 06:32:39 PM 37.5603 -77.9314 37° Northeast 482 555 36,300 -1,426 Descending Washington Center
Wed 06:33:40 PM 37.6708 -77.8192 39° Northeast 489 563 34,600 -1,636 Descending Washington Center
Wed 06:34:40 PM 37.7792 -77.7069 39° Northeast 496 571 33,000 -814 Descending Washington Center
Wed 06:35:38 PM 37.8875 -77.5967 39° Northeast 502 578 33,000  Level Washington Center
Wed 06:36:39 PM 37.9978 -77.4836 39° Northeast 507 583 33,000  Level Washington Center
Wed 06:37:40 PM 38.1081 -77.3678 40° Northeast 507 583 33,000  Level Washington Center
Wed 06:39:39 PM 38.3486 -77.1644 49° Northeast 513 590 33,000 -100 Level Washington Center
Wed 06:40:40 PM 38.4772 -77.0531 34° Northeast 508 585 32,700 -934 Descending Washington Center
Wed 06:41:41 PM 38.5972 -76.9544 33° Northeast 508 585 31,100 -1,678 Descending Washington Center
Wed 06:42:38 PM 38.7192 -76.8581 32° Northeast 508 585 29,400 -1,881 Descending Washington Center
Wed 06:43:39 PM 38.8183 -76.7267 46° Northeast 508 585 27,400 -1,918 Descending Washington Center
Wed 06:44:40 PM 38.9092 -76.5894 50° Northeast 502 578 25,500 -1,686 Descending Washington Center
Wed 06:45:40 PM 38.9914 -76.4675 49° Northeast 478 550 24,000 -763 Descending Washington Center
Wed 06:46:38 PM 39.0694 -76.3508 49° Northeast 444 511 24,000  Level Washington Center
Wed 06:47:38 PM 39.1514 -76.2314 48° Northeast 439 505 24,000  Level Washington Center
Wed 06:48:39 PM 39.2372 -76.1303 42° Northeast 439 505 24,000 -49 Level Washington Center
Wed 06:49:40 PM 39.3314 -76.0369 37° Northeast 439 505 23,900 -2,254 Descending Washington Center
Wed 06:51:40 PM 39.5333 -75.8500 36° Northeast 403 464 17,200 -3,345 Descending Philadelphia TRACON
Wed 06:52:34 PM 39.6167 -75.7667 38° Northeast 384 442 14,200 -2,211 Descending Philadelphia TRACON
Wed 06:53:34 PM 39.7000 -75.7000 32° Northeast 379 436 13,000 -545 Descending Philadelphia TRACON
Wed 06:54:46 PM 39.8000 -75.6000 38° Northeast 389 448 13,000  Level Philadelphia TRACON
Wed 06:55:34 PM 39.8667 -75.5333 37° Northeast 386 444 13,000  Level Philadelphia TRACON
Wed 06:56:34 PM 39.9667 -75.4500 33° Northeast 395 455 13,000  Level Philadelphia TRACON
Wed 06:57:40 PM 40.0500 -75.3667 37° Northeast 379 436 13,000  Level Philadelphia TRACON
Wed 06:58:40 PM 40.1500 -75.2833 32° Northeast 386 444 13,000 -556 Level Philadelphia TRACON
Wed 06:59:28 PM 40.2167 -75.2167 37° Northeast 368 423 12,000 -1,654 Descending Philadelphia TRACON
Wed 07:01:16 PM 40.3333 -75.0833 41° Northeast 313 360 8,700 -1,690 Descending New York TRACON
Wed 07:02:22 PM 40.4000 -75.0000 44° Northeast 309 356 7,100 -1,095 Descending New York TRACON
Wed 07:03:22 PM 40.4500 -74.9167 52° Northeast 301 346 6,400 -1,500 Descending New York TRACON
Wed 07:04:22 PM 40.5167 -74.8500 37° Northeast 292 336 4,100 -1,263 Descending New York TRACON
Wed 07:05:16 PM 40.5667 -74.7667 52° Northeast 295 339 4,000 -50 Descending New York TRACON
Wed 07:06:22 PM 40.6167 -74.6833 52° Northeast 300 345 4,000 -143 Level New York TRACON
Wed 07:07:22 PM 40.6667 -74.6000 52° Northeast 288 331 3,700 -500 Descending New York TRACON
Wed 07:08:22 PM 40.7333 -74.5167 43° Northeast 286 329 3,000 -350 Descending New York TRACON
Wed 07:09:22 PM 40.7667 -74.4333 62° Northeast 257 296 3,000  Level New York TRACON
Wed 07:10:22 PM 40.7833 -74.3500 75° East 253 291 3,000  Level New York TRACON
Wed 07:11:22 PM 40.8333 -74.2667 52° Northeast 270 311 3,000 -200 Level New York TRACON
Wed 07:12:22 PM 40.8667 -74.2000 57° Northeast 229 264 2,600 -526 Descending New York TRACON
Wed 07:13:16 PM 40.8833 -74.1333 72° East 229 264 2,000 -655 Descending New York TRACON
Wed 07:15:16 PM 40.8833 -74.0333 90° East 144 166 700 -650 Descending New York TRACON
Wed 07:17:00 PM 40.8500 -74.0500 57° Northeast  Level FlightAware Approximate
Wed 07:24:00 PM 40.8501 -74.0608 57° Northeast  Level Estimated

Login

Don't have an account? Register now (free) for customized features, flight alerts, and more!